sensor_id;sensor_type;location;lat;lon;timestamp;pressure;altitude;pressure_sealevel;temperature;humidity
72024;BME280;59889;50.700;5.440;2023-03-24T00:00:04;98537.75;;;21.72;35.59
72024;BME280;59889;50.700;5.440;2023-03-24T00:02:27;98542.54;;;21.88;35.71
72024;BME280;59889;50.700;5.440;2023-03-24T00:04:52;98541.87;;;21.90;35.68
72024;BME280;59889;50.700;5.440;2023-03-24T00:07:17;98552.56;;;21.65;35.68
72024;BME280;59889;50.700;5.440;2023-03-24T00:09:43;98554.77;;;21.55;35.81
72024;BME280;59889;50.700;5.440;2023-03-24T00:12:08;98554.10;;;21.73;35.60
72024;BME280;59889;50.700;5.440;2023-03-24T00:14:33;98555.22;;;21.71;35.63
72024;BME280;59889;50.700;5.440;2023-03-24T00:16:57;98547.07;;;21.74;35.57
72024;BME280;59889;50.700;5.440;2023-03-24T00:19:23;98539.26;;;22.24;35.54
72024;BME280;59889;50.700;5.440;2023-03-24T00:21:47;98534.31;;;21.96;35.61
72024;BME280;59889;50.700;5.440;2023-03-24T00:24:12;98527.85;;;21.91;35.67
72024;BME280;59889;50.700;5.440;2023-03-24T00:26:39;98528.00;;;21.73;35.64
72024;BME280;59889;50.700;5.440;2023-03-24T00:29:03;98525.60;;;21.72;35.65
72024;BME280;59889;50.700;5.440;2023-03-24T00:31:28;98517.38;;;21.90;35.71
72024;BME280;59889;50.700;5.440;2023-03-24T00:33:53;98511.60;;;21.89;35.72
72024;BME280;59889;50.700;5.440;2023-03-24T00:36:19;98497.87;;;21.51;35.59
72024;BME280;59889;50.700;5.440;2023-03-24T00:38:43;98495.31;;;22.01;35.63
72024;BME280;59889;50.700;5.440;2023-03-24T00:41:08;98494.29;;;21.69;35.71
72024;BME280;59889;50.700;5.440;2023-03-24T00:43:34;98491.29;;;21.74;35.64
72024;BME280;59889;50.700;5.440;2023-03-24T00:45:58;98490.25;;;21.78;35.59
72024;BME280;59889;50.700;5.440;2023-03-24T00:48:23;98475.18;;;21.74;35.61
72024;BME280;59889;50.700;5.440;2023-03-24T00:50:49;98472.26;;;21.89;35.74
72024;BME280;59889;50.700;5.440;2023-03-24T00:53:14;98465.88;;;21.82;35.46
72024;BME280;59889;50.700;5.440;2023-03-24T00:55:38;98466.52;;;21.87;35.72
72024;BME280;59889;50.700;5.440;2023-03-24T00:58:03;98468.39;;;21.88;35.74
72024;BME280;59889;50.700;5.440;2023-03-24T01:00:29;98457.06;;;21.74;35.64
72024;BME280;59889;50.700;5.440;2023-03-24T01:02:55;98456.85;;;21.93;35.72
72024;BME280;59889;50.700;5.440;2023-03-24T01:05:19;98448.56;;;21.85;35.77
72024;BME280;59889;50.700;5.440;2023-03-24T01:07:43;98449.11;;;21.97;35.61
72024;BME280;59889;50.700;5.440;2023-03-24T01:10:11;98441.22;;;21.92;35.74
72024;BME280;59889;50.700;5.440;2023-03-24T01:12:35;98435.07;;;21.91;35.70
72024;BME280;59889;50.700;5.440;2023-03-24T01:15:00;98436.71;;;21.92;35.71
72024;BME280;59889;50.700;5.440;2023-03-24T01:17:24;98430.62;;;21.74;35.65
72024;BME280;59889;50.700;5.440;2023-03-24T01:19:49;98437.45;;;21.65;35.75
72024;BME280;59889;50.700;5.440;2023-03-24T01:22:14;98409.58;;;21.72;35.65
72024;BME280;59889;50.700;5.440;2023-03-24T01:24:39;98419.75;;;21.74;35.61
72024;BME280;59889;50.700;5.440;2023-03-24T01:27:04;98414.97;;;21.73;35.68
72024;BME280;59889;50.700;5.440;2023-03-24T01:29:29;98410.17;;;21.92;35.67
72024;BME280;59889;50.700;5.440;2023-03-24T01:31:54;98415.57;;;21.74;35.64
72024;BME280;59889;50.700;5.440;2023-03-24T01:34:19;98417.07;;;21.91;35.75
72024;BME280;59889;50.700;5.440;2023-03-24T01:36:44;98408.38;;;21.71;35.69
72024;BME280;59889;50.700;5.440;2023-03-24T01:39:09;98405.62;;;22.01;35.64
72024;BME280;59889;50.700;5.440;2023-03-24T01:41:36;98407.88;;;21.96;35.66
72024;BME280;59889;50.700;5.440;2023-03-24T01:44:00;98408.42;;;21.74;35.65
72024;BME280;59889;50.700;5.440;2023-03-24T01:46:25;98404.39;;;21.92;35.74
72024;BME280;59889;50.700;5.440;2023-03-24T01:48:52;98408.51;;;21.65;35.78
72024;BME280;59889;50.700;5.440;2023-03-24T01:51:18;98406.14;;;21.98;35.65
72024;BME280;59889;50.700;5.440;2023-03-24T01:53:43;98404.64;;;21.94;35.70
72024;BME280;59889;50.700;5.440;2023-03-24T01:56:07;98394.80;;;21.66;35.77
72024;BME280;59889;50.700;5.440;2023-03-24T01:58:31;98399.81;;;22.02;35.61
72024;BME280;59889;50.700;5.440;2023-03-24T02:00:55;98396.47;;;21.94;35.70
72024;BME280;59889;50.700;5.440;2023-03-24T02:03:21;98391.77;;;21.74;35.68
72024;BME280;59889;50.700;5.440;2023-03-24T02:05:47;98387.83;;;21.77;35.59
72024;BME280;59889;50.700;5.440;2023-03-24T02:08:15;98390.59;;;21.77;35.63
72024;BME280;59889;50.700;5.440;2023-03-24T02:10:36;98383.08;;;21.73;35.67
72024;BME280;59889;50.700;5.440;2023-03-24T02:13:00;98378.50;;;21.74;35.65
72024;BME280;59889;50.700;5.440;2023-03-24T02:15:27;98385.74;;;21.72;35.70
72024;BME280;59889;50.700;5.440;2023-03-24T02:18:00;98378.99;;;21.79;35.63
72024;BME280;59889;50.700;5.440;2023-03-24T02:23:00;98376.55;;;21.86;35.49
72024;BME280;59889;50.700;5.440;2023-03-24T02:25:18;98388.82;;;21.73;35.64
72024;BME280;59889;50.700;5.440;2023-03-24T02:27:44;98381.66;;;22.03;35.61
72024;BME280;59889;50.700;5.440;2023-03-24T02:32:40;98388.24;;;21.77;35.61
72024;BME280;59889;50.700;5.440;2023-03-24T02:35:00;98391.63;;;21.75;35.65
72024;BME280;59889;50.700;5.440;2023-03-24T02:37:28;98391.96;;;21.85;35.53
72024;BME280;59889;50.700;5.440;2023-03-24T02:42:06;98392.73;;;21.80;35.60
72024;BME280;59889;50.700;5.440;2023-03-24T02:44:31;98392.50;;;22.00;35.65
72024;BME280;59889;50.700;5.440;2023-03-24T02:46:55;98398.53;;;21.98;35.66
72024;BME280;59889;50.700;5.440;2023-03-24T02:49:22;98394.73;;;21.66;35.79
72024;BME280;59889;50.700;5.440;2023-03-24T02:51:47;98398.68;;;21.84;35.54
72024;BME280;59889;50.700;5.440;2023-03-24T02:54:09;98392.81;;;21.73;35.71
72024;BME280;59889;50.700;5.440;2023-03-24T02:56:36;98388.60;;;21.77;35.64
72024;BME280;59889;50.700;5.440;2023-03-24T02:59:00;98394.58;;;21.73;35.70
72024;BME280;59889;50.700;5.440;2023-03-24T03:01:25;98392.68;;;21.80;35.63
72024;BME280;59889;50.700;5.440;2023-03-24T03:03:49;98395.66;;;21.81;35.63
72024;BME280;59889;50.700;5.440;2023-03-24T03:06:15;98391.44;;;21.96;35.73
72024;BME280;59889;50.700;5.440;2023-03-24T03:08:38;98391.70;;;21.80;35.64
72024;BME280;59889;50.700;5.440;2023-03-24T03:11:04;98395.94;;;22.07;35.57
72024;BME280;59889;50.700;5.440;2023-03-24T03:13:30;98408.53;;;21.79;35.65
72024;BME280;59889;50.700;5.440;2023-03-24T03:15:54;98409.13;;;22.13;35.48
72024;BME280;59889;50.700;5.440;2023-03-24T03:18:21;98419.52;;;21.77;35.70
72024;BME280;59889;50.700;5.440;2023-03-24T03:20:46;98434.73;;;21.90;35.49
72024;BME280;59889;50.700;5.440;2023-03-24T03:23:10;98462.98;;;21.83;35.56
72024;BME280;59889;50.700;5.440;2023-03-24T03:25:35;98472.47;;;21.95;35.48
72024;BME280;59889;50.700;5.440;2023-03-24T03:27:59;98461.25;;;21.91;35.52
72024;BME280;59889;50.700;5.440;2023-03-24T03:30:25;98460.68;;;22.15;35.51
72024;BME280;59889;50.700;5.440;2023-03-24T03:32:51;98472.66;;;21.85;35.58
72024;BME280;59889;50.700;5.440;2023-03-24T03:35:15;98465.29;;;22.06;35.60
72024;BME280;59889;50.700;5.440;2023-03-24T03:37:44;98466.73;;;21.94;35.45
72024;BME280;59889;50.700;5.440;2023-03-24T03:40:05;98469.26;;;21.90;35.54
72024;BME280;59889;50.700;5.440;2023-03-24T03:42:27;98472.50;;;22.10;35.57
72024;BME280;59889;50.700;5.440;2023-03-24T03:44:52;98473.91;;;21.94;35.45
72024;BME280;59889;50.700;5.440;2023-03-24T03:47:17;98480.67;;;21.92;35.47
72024;BME280;59889;50.700;5.440;2023-03-24T03:49:43;98486.55;;;22.14;35.51
72024;BME280;59889;50.700;5.440;2023-03-24T03:52:08;98491.42;;;21.93;35.47
72024;BME280;59889;50.700;5.440;2023-03-24T03:54:33;98498.91;;;22.16;35.49
72024;BME280;59889;50.700;5.440;2023-03-24T03:56:58;98510.66;;;22.29;34.98
72024;BME280;59889;50.700;5.440;2023-03-24T03:59:26;98518.08;;;21.98;35.33
72024;BME280;59889;50.700;5.440;2023-03-24T04:01:48;98524.96;;;22.11;35.18
72024;BME280;59889;50.700;5.440;2023-03-24T04:04:28;98531.75;;;22.08;35.21
72024;BME280;59889;50.700;5.440;2023-03-24T04:06:42;98538.10;;;21.91;35.49
72024;BME280;59889;50.700;5.440;2023-03-24T04:09:13;98539.81;;;21.91;35.48
72024;BME280;59889;50.700;5.440;2023-03-24T04:11:36;98556.51;;;22.16;35.45
72024;BME280;59889;50.700;5.440;2023-03-24T04:14:02;98563.59;;;22.17;35.45
72024;BME280;59889;50.700;5.440;2023-03-24T04:16:22;98563.23;;;21.93;35.44
72024;BME280;59889;50.700;5.440;2023-03-24T04:18:52;98570.94;;;22.00;35.37
72024;BME280;59889;50.700;5.440;2023-03-24T04:21:20;98576.70;;;22.15;35.45
72024;BME280;59889;50.700;5.440;2023-03-24T04:23:38;98592.42;;;22.07;35.56
72024;BME280;59889;50.700;5.440;2023-03-24T04:26:06;98592.66;;;21.73;35.70
72024;BME280;59889;50.700;5.440;2023-03-24T04:28:28;98605.62;;;21.81;35.59
72024;BME280;59889;50.700;5.440;2023-03-24T04:30:51;98612.17;;;21.66;35.80
72024;BME280;59889;50.700;5.440;2023-03-24T04:33:17;98618.24;;;21.79;35.65
72024;BME280;59889;50.700;5.440;2023-03-24T04:35:43;98618.78;;;21.85;35.89
72024;BME280;59889;50.700;5.440;2023-03-24T04:38:06;98617.73;;;21.63;35.86
72024;BME280;59889;50.700;5.440;2023-03-24T04:40:30;98614.91;;;22.08;35.89
72024;BME280;59889;50.700;5.440;2023-03-24T04:42:55;98616.47;;;21.69;35.79
72024;BME280;59889;50.700;5.440;2023-03-24T04:45:20;98623.58;;;21.93;35.79
72024;BME280;59889;50.700;5.440;2023-03-24T04:47:47;98623.46;;;21.95;35.73
72024;BME280;59889;50.700;5.440;2023-03-24T04:50:11;98626.34;;;22.04;35.63
72024;BME280;59889;50.700;5.440;2023-03-24T04:52:34;98627.24;;;21.83;35.59
72024;BME280;59889;50.700;5.440;2023-03-24T04:55:00;98633.15;;;21.73;35.73
72024;BME280;59889;50.700;5.440;2023-03-24T04:57:25;98636.86;;;22.17;35.75
72024;BME280;59889;50.700;5.440;2023-03-24T04:59:50;98642.28;;;21.76;35.66
72024;BME280;59889;50.700;5.440;2023-03-24T05:02:15;98648.67;;;21.72;35.69
72024;BME280;59889;50.700;5.440;2023-03-24T05:04:40;98653.93;;;21.62;35.82
72024;BME280;59889;50.700;5.440;2023-03-24T05:07:05;98662.58;;;21.80;35.88
72024;BME280;59889;50.700;5.440;2023-03-24T05:09:30;98664.80;;;21.94;35.71
72024;BME280;59889;50.700;5.440;2023-03-24T05:11:55;98663.15;;;21.50;35.67
72024;BME280;59889;50.700;5.440;2023-03-24T05:14:20;98668.63;;;21.37;35.43
72024;BME280;59889;50.700;5.440;2023-03-24T05:16:45;98674.98;;;21.58;35.01
72024;BME280;59889;50.700;5.440;2023-03-24T05:19:10;98678.40;;;21.73;34.90
72024;BME280;59889;50.700;5.440;2023-03-24T05:21:35;98681.52;;;21.53;34.71
72024;BME280;59889;50.700;5.440;2023-03-24T05:24:00;98684.34;;;21.83;34.52
72024;BME280;59889;50.700;5.440;2023-03-24T05:26:26;98689.09;;;21.39;34.72
72024;BME280;59889;50.700;5.440;2023-03-24T05:28:50;98688.52;;;21.57;34.65
72024;BME280;59889;50.700;5.440;2023-03-24T05:31:15;98684.41;;;21.20;34.77
72024;BME280;59889;50.700;5.440;2023-03-24T05:33:40;98680.31;;;21.41;34.75
72024;BME280;59889;50.700;5.440;2023-03-24T05:36:06;98685.73;;;21.52;35.12
72024;BME280;59889;50.700;5.440;2023-03-24T05:38:31;98687.99;;;21.66;34.98
72024;BME280;59889;50.700;5.440;2023-03-24T05:40:56;98693.71;;;21.42;35.27
72024;BME280;59889;50.700;5.440;2023-03-24T05:43:21;98692.86;;;21.51;35.18
72024;BME280;59889;50.700;5.440;2023-03-24T05:45:46;98694.56;;;21.68;35.35
72024;BME280;59889;50.700;5.440;2023-03-24T05:48:11;98705.14;;;21.74;35.28
72024;BME280;59889;50.700;5.440;2023-03-24T05:50:36;98708.39;;;21.57;35.23
72024;BME280;59889;50.700;5.440;2023-03-24T05:53:01;98709.16;;;21.54;35.32
72024;BME280;59889;50.700;5.440;2023-03-24T05:55:26;98717.37;;;21.51;35.34
72024;BME280;59889;50.700;5.440;2023-03-24T05:57:51;98718.23;;;21.22;35.46
72024;BME280;59889;50.700;5.440;2023-03-24T06:00:17;98717.98;;;21.42;35.57
72024;BME280;59889;50.700;5.440;2023-03-24T06:02:42;98718.70;;;21.57;35.73
72024;BME280;59889;50.700;5.440;2023-03-24T06:05:07;98718.51;;;21.45;35.61
72024;BME280;59889;50.700;5.440;2023-03-24T06:07:31;98724.02;;;21.36;35.43
72024;BME280;59889;50.700;5.440;2023-03-24T06:09:57;98733.22;;;21.64;35.64
72024;BME280;59889;50.700;5.440;2023-03-24T06:12:22;98738.60;;;21.29;35.53
72024;BME280;59889;50.700;5.440;2023-03-24T06:14:46;98742.52;;;21.56;35.76
72024;BME280;59889;50.700;5.440;2023-03-24T06:17:12;98751.80;;;21.57;35.44
72024;BME280;59889;50.700;5.440;2023-03-24T06:19:37;98757.08;;;21.46;35.54
72024;BME280;59889;50.700;5.440;2023-03-24T06:22:02;98758.31;;;21.56;35.43
72024;BME280;59889;50.700;5.440;2023-03-24T06:24:27;98764.80;;;21.47;35.68
72024;BME280;59889;50.700;5.440;2023-03-24T06:26:52;98769.32;;;21.52;35.61
72024;BME280;59889;50.700;5.440;2023-03-24T06:29:17;98769.28;;;21.62;35.77
72024;BME280;59889;50.700;5.440;2023-03-24T06:31:42;98764.22;;;21.55;35.64
72024;BME280;59889;50.700;5.440;2023-03-24T06:34:07;98756.52;;;21.45;35.78
72024;BME280;59889;50.700;5.440;2023-03-24T06:36:32;98751.63;;;21.63;35.83
72024;BME280;59889;50.700;5.440;2023-03-24T06:38:57;98752.13;;;21.52;35.70
72024;BME280;59889;50.700;5.440;2023-03-24T06:41:22;98747.89;;;21.23;35.81
72024;BME280;59889;50.700;5.440;2023-03-24T06:43:47;98746.17;;;21.58;35.65
72024;BME280;59889;50.700;5.440;2023-03-24T06:46:12;98748.16;;;21.66;35.62
72024;BME280;59889;50.700;5.440;2023-03-24T06:48:38;98745.08;;;21.54;35.80
72024;BME280;59889;50.700;5.440;2023-03-24T06:51:03;98735.30;;;21.48;35.60
72024;BME280;59889;50.700;5.440;2023-03-24T06:53:28;98731.66;;;21.84;35.41
72024;BME280;59889;50.700;5.440;2023-03-24T06:55:53;98740.80;;;21.70;35.58
72024;BME280;59889;50.700;5.440;2023-03-24T06:58:18;98741.81;;;21.54;35.48
72024;BME280;59889;50.700;5.440;2023-03-24T07:00:43;98748.14;;;21.88;35.31
72024;BME280;59889;50.700;5.440;2023-03-24T07:03:08;98757.62;;;22.03;35.12
72024;BME280;59889;50.700;5.440;2023-03-24T07:05:36;98767.27;;;21.87;35.04
72024;BME280;59889;50.700;5.440;2023-03-24T07:07:58;98774.67;;;22.24;34.60
72024;BME280;59889;50.700;5.440;2023-03-24T07:10:23;98783.12;;;22.28;34.54
72024;BME280;59889;50.700;5.440;2023-03-24T07:12:48;98789.35;;;22.63;34.13
72024;BME280;59889;50.700;5.440;2023-03-24T07:15:13;98790.68;;;22.31;34.45
72024;BME280;59889;50.700;5.440;2023-03-24T07:17:39;98788.14;;;21.78;34.83
72024;BME280;59889;50.700;5.440;2023-03-24T07:20:04;98794.71;;;21.83;35.10
72024;BME280;59889;50.700;5.440;2023-03-24T07:22:28;98798.53;;;22.36;34.47
72024;BME280;59889;50.700;5.440;2023-03-24T07:24:53;98805.59;;;22.35;34.47
72024;BME280;59889;50.700;5.440;2023-03-24T07:27:18;98807.22;;;22.20;34.65
72024;BME280;59889;50.700;5.440;2023-03-24T07:29:43;98812.87;;;22.23;34.68
72024;BME280;59889;50.700;5.440;2023-03-24T07:32:09;98818.35;;;21.86;35.16
72024;BME280;59889;50.700;5.440;2023-03-24T07:34:34;98816.93;;;21.65;35.44
72024;BME280;59889;50.700;5.440;2023-03-24T07:36:58;98818.33;;;21.93;35.04
72024;BME280;59889;50.700;5.440;2023-03-24T07:39:23;98813.63;;;21.74;35.26
72024;BME280;59889;50.700;5.440;2023-03-24T07:41:48;98816.59;;;21.96;34.82
72024;BME280;59889;50.700;5.440;2023-03-24T07:44:14;98813.01;;;22.42;34.14
72024;BME280;59889;50.700;5.440;2023-03-24T07:46:39;98807.73;;;22.62;33.58
72024;BME280;59889;50.700;5.440;2023-03-24T07:49:04;98807.25;;;23.12;32.73
72024;BME280;59889;50.700;5.440;2023-03-24T07:51:29;98802.83;;;23.36;32.11
72024;BME280;59889;50.700;5.440;2023-03-24T07:53:54;98807.08;;;24.62;30.66
72024;BME280;59889;50.700;5.440;2023-03-24T07:56:19;98808.97;;;24.73;30.22
72024;BME280;59889;50.700;5.440;2023-03-24T07:58:44;98807.68;;;24.76;30.17
72024;BME280;59889;50.700;5.440;2023-03-24T08:01:09;98811.58;;;24.99;30.13
72024;BME280;59889;50.700;5.440;2023-03-24T08:03:35;98818.05;;;24.61;30.26
72024;BME280;59889;50.700;5.440;2023-03-24T08:06:00;98816.64;;;24.11;31.12
72024;BME280;59889;50.700;5.440;2023-03-24T08:08:25;98813.80;;;23.62;31.45
72024;BME280;59889;50.700;5.440;2023-03-24T08:10:50;98818.16;;;23.20;32.23
72024;BME280;59889;50.700;5.440;2023-03-24T08:13:15;98818.76;;;23.20;32.52
72024;BME280;59889;50.700;5.440;2023-03-24T08:15:40;98821.68;;;23.20;32.59
72024;BME280;59889;50.700;5.440;2023-03-24T08:18:05;98823.86;;;22.77;33.08
72024;BME280;59889;50.700;5.440;2023-03-24T08:20:31;98825.23;;;22.81;33.09
72024;BME280;59889;50.700;5.440;2023-03-24T08:22:55;98827.36;;;22.90;33.02
72024;BME280;59889;50.700;5.440;2023-03-24T08:25:23;98830.70;;;22.80;33.38
72024;BME280;59889;50.700;5.440;2023-03-24T08:27:46;98835.56;;;22.47;33.57
72024;BME280;59889;50.700;5.440;2023-03-24T08:30:14;98836.29;;;22.44;33.61
72024;BME280;59889;50.700;5.440;2023-03-24T08:32:36;98841.54;;;22.53;33.80
72024;BME280;59889;50.700;5.440;2023-03-24T08:35:01;98845.58;;;22.23;33.89
72024;BME280;59889;50.700;5.440;2023-03-24T08:37:26;98850.74;;;22.52;34.08
72024;BME280;59889;50.700;5.440;2023-03-24T08:39:51;98850.68;;;22.34;34.37
72024;BME280;59889;50.700;5.440;2023-03-24T08:42:16;98850.77;;;22.45;34.17
72024;BME280;59889;50.700;5.440;2023-03-24T08:44:41;98854.99;;;21.99;34.15
72024;BME280;59889;50.700;5.440;2023-03-24T08:47:06;98855.65;;;22.30;34.29
72024;BME280;59889;50.700;5.440;2023-03-24T08:49:31;98859.53;;;22.26;34.31
72024;BME280;59889;50.700;5.440;2023-03-24T08:51:56;98862.07;;;22.24;34.26
72024;BME280;59889;50.700;5.440;2023-03-24T08:54:21;98860.55;;;22.29;34.22
72024;BME280;59889;50.700;5.440;2023-03-24T08:56:46;98865.38;;;22.16;34.40
72024;BME280;59889;50.700;5.440;2023-03-24T08:59:11;98868.79;;;22.24;34.26
72024;BME280;59889;50.700;5.440;2023-03-24T09:01:36;98865.93;;;21.96;34.49
72024;BME280;59889;50.700;5.440;2023-03-24T09:04:01;98866.29;;;22.43;34.25
72024;BME280;59889;50.700;5.440;2023-03-24T09:06:26;98870.15;;;22.11;34.25
72024;BME280;59889;50.700;5.440;2023-03-24T09:08:52;98870.24;;;22.14;34.23
72024;BME280;59889;50.700;5.440;2023-03-24T09:11:19;98869.16;;;22.14;34.22
72024;BME280;59889;50.700;5.440;2023-03-24T09:13:42;98866.53;;;22.10;34.28
72024;BME280;59889;50.700;5.440;2023-03-24T09:16:07;98866.80;;;22.33;34.28
72024;BME280;59889;50.700;5.440;2023-03-24T09:18:32;98869.20;;;22.06;34.34
72024;BME280;59889;50.700;5.440;2023-03-24T09:20:57;98867.73;;;21.97;34.40
72024;BME280;59889;50.700;5.440;2023-03-24T09:23:22;98870.46;;;21.96;34.28
72024;BME280;59889;50.700;5.440;2023-03-24T09:25:48;98873.44;;;22.26;34.09
72024;BME280;59889;50.700;5.440;2023-03-24T09:28:12;98876.70;;;21.96;34.21
72024;BME280;59889;50.700;5.440;2023-03-24T09:30:37;98878.10;;;21.93;34.36
72024;BME280;59889;50.700;5.440;2023-03-24T09:33:03;98877.66;;;22.14;34.41
72024;BME280;59889;50.700;5.440;2023-03-24T09:35:27;98886.64;;;21.90;34.27
72024;BME280;59889;50.700;5.440;2023-03-24T09:37:53;98886.01;;;22.13;34.16
72024;BME280;59889;50.700;5.440;2023-03-24T09:40:19;98889.01;;;22.02;34.34
72024;BME280;59889;50.700;5.440;2023-03-24T09:42:43;98890.66;;;22.04;34.24
72024;BME280;59889;50.700;5.440;2023-03-24T09:45:14;98893.97;;;22.12;34.11
72024;BME280;59889;50.700;5.440;2023-03-24T09:47:36;98896.57;;;21.81;34.19
72024;BME280;59889;50.700;5.440;2023-03-24T09:50:02;98900.66;;;21.57;34.33
72024;BME280;59889;50.700;5.440;2023-03-24T09:52:28;98902.93;;;21.92;34.20
72024;BME280;59889;50.700;5.440;2023-03-24T09:54:52;98900.59;;;21.72;34.03
72024;BME280;59889;50.700;5.440;2023-03-24T09:57:17;98898.52;;;22.02;33.97
72024;BME280;59889;50.700;5.440;2023-03-24T09:59:38;98901.30;;;21.68;34.10
72024;BME280;59889;50.700;5.440;2023-03-24T10:02:09;98900.18;;;21.96;33.93
72024;BME280;59889;50.700;5.440;2023-03-24T10:04:29;98901.06;;;21.64;33.94
72024;BME280;59889;50.700;5.440;2023-03-24T10:06:57;98898.03;;;21.69;33.81
72024;BME280;59889;50.700;5.440;2023-03-24T10:09:23;98888.61;;;21.86;33.88
72024;BME280;59889;50.700;5.440;2023-03-24T10:11:47;98887.62;;;21.63;33.89
72024;BME280;59889;50.700;5.440;2023-03-24T10:14:18;98881.97;;;21.76;33.85
72024;BME280;59889;50.700;5.440;2023-03-24T10:16:37;98879.28;;;21.60;34.06
72024;BME280;59889;50.700;5.440;2023-03-24T10:19:03;98878.25;;;21.83;34.12
72024;BME280;59889;50.700;5.440;2023-03-24T10:21:25;98873.88;;;22.00;33.97
72024;BME280;59889;50.700;5.440;2023-03-24T10:23:53;98873.53;;;21.68;34.08
72024;BME280;59889;50.700;5.440;2023-03-24T10:26:24;98876.90;;;22.01;34.11
72024;BME280;59889;50.700;5.440;2023-03-24T10:28:42;98874.21;;;21.75;34.07
72024;BME280;59889;50.700;5.440;2023-03-24T10:31:07;98882.69;;;21.79;34.13
72024;BME280;59889;50.700;5.440;2023-03-24T10:33:29;98878.95;;;21.68;34.16
72024;BME280;59889;50.700;5.440;2023-03-24T10:35:59;98880.04;;;22.12;33.89
72024;BME280;59889;50.700;5.440;2023-03-24T10:38:21;98885.99;;;21.72;34.09
72024;BME280;59889;50.700;5.440;2023-03-24T10:40:45;98899.13;;;21.90;34.12
72024;BME280;59889;50.700;5.440;2023-03-24T10:43:10;98906.58;;;21.94;34.16
72024;BME280;59889;50.700;5.440;2023-03-24T10:45:36;98902.22;;;21.40;34.53
72024;BME280;59889;50.700;5.440;2023-03-24T10:48:01;98899.66;;;21.80;33.99
72024;BME280;59889;50.700;5.440;2023-03-24T10:50:27;98900.11;;;21.90;34.02
72024;BME280;59889;50.700;5.440;2023-03-24T10:52:49;98903.18;;;21.68;34.03
72024;BME280;59889;50.700;5.440;2023-03-24T10:55:17;98902.17;;;21.83;34.08
72024;BME280;59889;50.700;5.440;2023-03-24T10:57:42;98904.44;;;21.51;34.18
72024;BME280;59889;50.700;5.440;2023-03-24T11:00:06;98902.63;;;21.67;34.24
72024;BME280;59889;50.700;5.440;2023-03-24T11:02:31;98906.57;;;21.49;34.18
72024;BME280;59889;50.700;5.440;2023-03-24T11:04:57;98909.72;;;21.55;34.06
72024;BME280;59889;50.700;5.440;2023-03-24T11:07:21;98908.28;;;22.08;33.95
72024;BME280;59889;50.700;5.440;2023-03-24T11:09:47;98911.09;;;21.52;33.89
72024;BME280;59889;50.700;5.440;2023-03-24T11:12:21;98898.49;;;21.87;33.71
72024;BME280;59889;50.700;5.440;2023-03-24T11:14:43;98906.90;;;21.49;33.76
72024;BME280;59889;50.700;5.440;2023-03-24T11:17:09;98907.71;;;21.70;33.90
72024;BME280;59889;50.700;5.440;2023-03-24T11:19:25;98904.44;;;21.99;34.04
72024;BME280;59889;50.700;5.440;2023-03-24T11:21:56;98904.13;;;21.55;33.88
72024;BME280;59889;50.700;5.440;2023-03-24T11:24:17;98905.94;;;21.59;34.00
72024;BME280;59889;50.700;5.440;2023-03-24T11:26:44;98903.11;;;21.61;34.04
72024;BME280;59889;50.700;5.440;2023-03-24T11:29:10;98895.93;;;21.43;34.13
72024;BME280;59889;50.700;5.440;2023-03-24T11:31:32;98888.06;;;21.85;33.85
72024;BME280;59889;50.700;5.440;2023-03-24T11:33:58;98883.94;;;21.83;33.87
72024;BME280;59889;50.700;5.440;2023-03-24T11:36:35;98887.37;;;21.78;33.84
72024;BME280;59889;50.700;5.440;2023-03-24T11:41:18;98889.37;;;21.97;33.65
72024;BME280;59889;50.700;5.440;2023-03-24T11:43:37;98887.49;;;21.73;33.68
72024;BME280;59889;50.700;5.440;2023-03-24T11:46:06;98898.77;;;21.72;33.79
72024;BME280;59889;50.700;5.440;2023-03-24T11:48:30;98896.83;;;21.56;33.65
72024;BME280;59889;50.700;5.440;2023-03-24T11:50:52;98901.29;;;21.71;33.67
72024;BME280;59889;50.700;5.440;2023-03-24T11:53:20;98898.50;;;21.64;33.78
72024;BME280;59889;50.700;5.440;2023-03-24T11:55:45;98895.96;;;21.64;33.77
72024;BME280;59889;50.700;5.440;2023-03-24T11:58:13;98891.75;;;21.68;33.71
72024;BME280;59889;50.700;5.440;2023-03-24T12:00:34;98895.20;;;21.74;33.52
72024;BME280;59889;50.700;5.440;2023-03-24T12:03:13;98894.73;;;21.76;33.44
72024;BME280;59889;50.700;5.440;2023-03-24T12:05:30;98894.90;;;21.76;33.46
72024;BME280;59889;50.700;5.440;2023-03-24T12:10:21;98892.34;;;21.84;33.22
72024;BME280;59889;50.700;5.440;2023-03-24T12:12:43;98888.08;;;21.47;33.34
72024;BME280;59889;50.700;5.440;2023-03-24T12:15:17;98886.17;;;21.79;33.39
72024;BME280;59889;50.700;5.440;2023-03-24T12:17:32;98892.06;;;21.69;33.53
72024;BME280;59889;50.700;5.440;2023-03-24T12:20:07;98893.01;;;21.69;33.60
72024;BME280;59889;50.700;5.440;2023-03-24T12:22:27;98886.52;;;21.81;33.39
72024;BME280;59889;50.700;5.440;2023-03-24T12:27:17;98904.49;;;21.55;33.45
72024;BME280;59889;50.700;5.440;2023-03-24T12:29:44;98912.11;;;21.74;33.28
72024;BME280;59889;50.700;5.440;2023-03-24T12:32:08;98904.97;;;21.74;33.06
72024;BME280;59889;50.700;5.440;2023-03-24T12:34:41;98906.18;;;21.57;33.40
72024;BME280;59889;50.700;5.440;2023-03-24T12:36:53;98903.50;;;21.86;33.46
72024;BME280;59889;50.700;5.440;2023-03-24T12:39:15;98903.23;;;21.51;33.65
72024;BME280;59889;50.700;5.440;2023-03-24T12:41:47;98900.52;;;21.44;33.86
72024;BME280;59889;50.700;5.440;2023-03-24T12:44:18;98902.37;;;21.64;33.71
72024;BME280;59889;50.700;5.440;2023-03-24T12:46:33;98899.00;;;21.50;33.62
72024;BME280;59889;50.700;5.440;2023-03-24T12:49:02;98901.73;;;21.65;33.79
72024;BME280;59889;50.700;5.440;2023-03-24T12:51:25;98893.02;;;21.87;33.86
72024;BME280;59889;50.700;5.440;2023-03-24T12:53:54;98884.11;;;21.55;33.91
72024;BME280;59889;50.700;5.440;2023-03-24T12:56:12;98884.76;;;21.44;33.82
72024;BME280;59889;50.700;5.440;2023-03-24T12:58:40;98889.70;;;21.72;34.09
72024;BME280;59889;50.700;5.440;2023-03-24T13:01:03;98887.46;;;21.70;33.86